Time;durP1;ratioP1;P1;durP2;ratioP2;P2;SDS_P1;SDS_P2;PMS_P1;PMS_P2;Temp;Humidity;BMP_temperature;BMP_pressure;BME280_temperature;BME280_humidity;BME280_pressure;Samples;Min_cycle;Max_cycle;Signal;HPM_P1;HPM_P2
2020/12/21 00:01:27;;;;;;;;;;;22.80;95.00;;;;;;5137553;27;19907;-89
2020/12/21 00:03:54;;;;;;;;;;;22.80;95.20;;;;;;5137090;27;19920;-81
2020/12/21 00:06:21;;;;;;;;;;;22.90;94.30;;;;;;5143467;27;19914;-86
2020/12/21 00:08:47;;;;;;;;;;;22.90;94.50;;;;;;5157065;27;19914;-82
2020/12/21 00:11:14;;;;;;;;;;;22.80;94.70;;;;;;5156922;27;20281;-85
2020/12/21 00:13:44;;;;;;;;;;;22.70;95.20;;;;;;5156312;27;19907;-85
2020/12/21 00:16:11;;;;;;;;;;;22.70;94.80;;;;;;5156413;27;19914;-86
2020/12/21 00:18:38;;;;;;;;;;;22.80;95.00;;;;;;5139004;27;19907;-87
2020/12/21 00:21:06;;;;;;;;;;;22.70;94.60;;;;;;5148903;27;19994;-85
2020/12/21 00:23:35;;;;;;;;;;;22.70;94.80;;;;;;5157774;27;19946;-88
2020/12/21 00:26:02;;;;;;;;;;;22.70;94.60;;;;;;5156741;27;19911;-86
2020/12/21 00:28:29;;;;;;;;;;;22.80;94.80;;;;;;5158353;27;19928;-86
2020/12/21 00:30:55;;;;;;;;;;;22.90;94.50;;;;;;5176260;27;19929;-84
2020/12/21 00:33:22;;;;;;;;;;;22.90;93.40;;;;;;5156693;27;19987;-87
2020/12/21 00:35:49;;;;;;;;;;;22.80;94.10;;;;;;5157545;27;20368;-87
2020/12/21 00:38:16;;;;;;;;;;;22.90;94.50;;;;;;5141855;27;19963;-85
2020/12/21 00:40:42;;;;;;;;;;;22.80;95.00;;;;;;5160103;27;19911;-86
2020/12/21 00:43:09;;;;;;;;;;;22.80;95.30;;;;;;5160977;27;19919;-86
2020/12/21 00:45:36;;;;;;;;;;;22.80;95.00;;;;;;5136286;27;20018;-87
2020/12/21 00:48:02;;;;;;;;;;;22.80;94.80;;;;;;5136325;27;19907;-89
2020/12/21 00:50:29;;;;;;;;;;;22.90;94.30;;;;;;5135357;27;20363;-88
2020/12/21 00:52:55;;;;;;;;;;;22.90;93.90;;;;;;5137879;27;19923;-88
2020/12/21 00:55:22;;;;;;;;;;;22.90;94.20;;;;;;5142745;27;19919;-85
2020/12/21 00:57:49;;;;;;;;;;;22.90;94.10;;;;;;5135805;27;20003;-86
2020/12/21 01:00:15;;;;;;;;;;;23.00;94.20;;;;;;5134108;27;19957;-85
2020/12/21 01:02:42;;;;;;;;;;;23.00;94.20;;;;;;5134785;27;20262;-82
2020/12/21 01:05:09;;;;;;;;;;;23.10;94.40;;;;;;5134299;27;19920;-81
2020/12/21 01:07:35;;;;;;;;;;;23.10;93.80;;;;;;5134311;27;19923;-80
2020/12/21 01:10:02;;;;;;;;;;;23.10;94.00;;;;;;5133754;27;19911;-81
2020/12/21 01:12:29;;;;;;;;;;;23.10;93.20;;;;;;5134426;27;19911;-82
2020/12/21 01:14:55;;;;;;;;;;;23.00;93.50;;;;;;5134134;27;19968;-81
2020/12/21 01:17:22;;;;;;;;;;;23.10;93.60;;;;;;5134350;28;19979;-81
2020/12/21 01:19:48;;;;;;;;;;;23.00;93.80;;;;;;5134397;28;20042;-79
2020/12/21 01:22:15;;;;;;;;;;;23.00;93.90;;;;;;5134572;28;19939;-80
2020/12/21 01:24:42;;;;;;;;;;;22.90;93.80;;;;;;5136063;28;19929;-79
2020/12/21 01:27:09;;;;;;;;;;;22.90;93.70;;;;;;5147696;28;19951;-84
2020/12/21 01:29:38;;;;;;;;;;;22.90;93.90;;;;;;5136982;28;19908;-79
2020/12/21 01:32:17;;;;;;;;;;;22.80;93.90;;;;;;5136909;28;19908;-81
2020/12/21 01:34:48;;;;;;;;;;;22.80;93.80;;;;;;5136775;28;19919;-79
2020/12/21 01:37:15;;;;;;;;;;;22.70;94.20;;;;;;5134456;28;19907;-86
2020/12/21 01:39:48;;;;;;;;;;;22.70;94.10;;;;;;5134259;27;19915;-82
2020/12/21 01:42:16;;;;;;;;;;;22.70;94.30;;;;;;5134534;27;20329;-85
2020/12/21 01:44:48;;;;;;;;;;;22.80;94.50;;;;;;5138855;27;19908;-88
2020/12/21 01:47:17;;;;;;;;;;;22.80;94.30;;;;;;5138668;27;20289;-87
2020/12/21 01:49:44;;;;;;;;;;;22.80;94.20;;;;;;5121426;27;19919;-87
2020/12/21 01:52:12;;;;;;;;;;;22.80;94.40;;;;;;5138996;27;19999;-86
2020/12/21 01:54:38;;;;;;;;;;;22.80;95.00;;;;;;5138336;27;20429;-82
2020/12/21 01:57:05;;;;;;;;;;;22.80;95.50;;;;;;5138943;27;19930;-88
2020/12/21 01:59:32;;;;;;;;;;;22.60;96.50;;;;;;5138575;27;19974;-89
2020/12/21 02:01:59;;;;;;;;;;;22.50;96.90;;;;;;5137816;27;20427;-89
2020/12/21 02:04:25;;;;;;;;;;;22.40;96.90;;;;;;5130851;27;19969;-88
2020/12/21 02:06:52;;;;;;;;;;;22.20;97.60;;;;;;5118072;28;19908;-81
2020/12/21 02:09:19;;;;;;;;;;;22.10;97.50;;;;;;5117989;28;19908;-87
2020/12/21 02:11:45;;;;;;;;;;;22.00;97.70;;;;;;5117431;28;19908;-87
2020/12/21 02:14:12;;;;;;;;;;;21.90;98.20;;;;;;5117752;28;19920;-88
2020/12/21 02:16:38;;;;;;;;;;;22.00;98.30;;;;;;5117919;28;19908;-87
2020/12/21 02:19:05;;;;;;;;;;;22.00;98.70;;;;;;5118425;28;19915;-87
2020/12/21 02:21:32;;;;;;;;;;;21.90;98.30;;;;;;5119388;28;19921;-88
2020/12/21 02:23:58;;;;;;;;;;;21.90;98.70;;;;;;5117632;28;19911;-86
2020/12/21 02:26:25;;;;;;;;;;;21.90;98.50;;;;;;5116997;28;19973;-88
2020/12/21 02:28:55;;;;;;;;;;;21.90;98.80;;;;;;5117197;28;19907;-83
2020/12/21 02:31:22;;;;;;;;;;;21.90;98.90;;;;;;5116977;28;19912;-82
2020/12/21 02:33:49;;;;;;;;;;;21.90;98.70;;;;;;5117727;28;20409;-90
2020/12/21 02:36:15;;;;;;;;;;;21.90;98.90;;;;;;5117511;28;19975;-88
2020/12/21 02:38:42;;;;;;;;;;;21.80;99.20;;;;;;5117979;28;19908;-84
2020/12/21 02:41:12;;;;;;;;;;;21.80;99.70;;;;;;5119666;28;19949;-84
2020/12/21 02:43:39;;;;;;;;;;;21.70;99.70;;;;;;5118936;28;19908;-88
2020/12/21 02:46:10;;;;;;;;;;;21.80;99.90;;;;;;5119700;28;20010;-85
2020/12/21 02:48:37;;;;;;;;;;;21.70;99.90;;;;;;5117747;28;20362;-83
2020/12/21 02:51:04;;;;;;;;;;;21.60;99.90;;;;;;5117873;28;20354;-85
2020/12/21 02:53:30;;;;;;;;;;;21.70;99.90;;;;;;5117304;28;19911;-81
2020/12/21 02:55:57;;;;;;;;;;;21.70;99.90;;;;;;5097864;28;20018;-83
2020/12/21 02:58:24;;;;;;;;;;;21.60;99.90;;;;;;5117684;28;19912;-86
2020/12/21 03:00:50;;;;;;;;;;;21.50;99.90;;;;;;5099988;28;19915;-88
2020/12/21 03:03:17;;;;;;;;;;;21.50;99.90;;;;;;5117077;28;19907;-86
2020/12/21 03:05:44;;;;;;;;;;;21.50;99.90;;;;;;5136058;27;19972;-89
2020/12/21 03:08:11;;;;;;;;;;;21.40;99.90;;;;;;5119593;27;19918;-91
2020/12/21 03:10:38;;;;;;;;;;;21.40;99.90;;;;;;5137542;27;20006;-88
2020/12/21 03:13:05;;;;;;;;;;;21.40;99.90;;;;;;5137779;27;19936;-88
2020/12/21 03:15:31;;;;;;;;;;;21.30;99.90;;;;;;5138549;27;19962;-88
2020/12/21 03:17:58;;;;;;;;;;;21.30;99.90;;;;;;5138118;27;19911;-88
2020/12/21 03:20:25;;;;;;;;;;;21.40;99.90;;;;;;5137468;27;19911;-85
2020/12/21 03:22:51;;;;;;;;;;;21.40;99.90;;;;;;5138008;27;19930;-91
2020/12/21 03:25:18;;;;;;;;;;;21.40;99.90;;;;;;5136822;27;19911;-89
2020/12/21 03:27:45;;;;;;;;;;;21.40;99.90;;;;;;5118009;27;19918;-86
2020/12/21 03:30:12;;;;;;;;;;;21.40;99.90;;;;;;5136364;27;19911;-87
2020/12/21 03:32:38;;;;;;;;;;;21.40;99.90;;;;;;5138718;27;20373;-90
2020/12/21 03:35:06;;;;;;;;;;;21.30;99.90;;;;;;5137535;27;19923;-90
2020/12/21 03:37:33;;;;;;;;;;;21.30;99.90;;;;;;5119114;27;19967;-92
2020/12/21 03:40:08;;;;;;;;;;;21.30;99.90;;;;;;5136762;27;19911;-89
2020/12/21 03:42:35;;;;;;;;;;;21.20;99.90;;;;;;5136064;27;20442;-87
2020/12/21 03:45:03;;;;;;;;;;;21.20;99.90;;;;;;5135893;27;19953;-90
2020/12/21 03:47:30;;;;;;;;;;;21.20;99.90;;;;;;5135254;27;19959;-87
2020/12/21 03:49:57;;;;;;;;;;;21.20;99.90;;;;;;5136940;27;20377;-83
2020/12/21 03:52:23;;;;;;;;;;;21.30;99.90;;;;;;5136379;27;19941;-89
2020/12/21 03:54:50;;;;;;;;;;;21.30;99.90;;;;;;5137221;27;19936;-83
2020/12/21 03:57:17;;;;;;;;;;;21.30;99.90;;;;;;5136243;27;19972;-86
2020/12/21 03:59:43;;;;;;;;;;;21.30;99.90;;;;;;5136361;27;19907;-85
2020/12/21 04:02:10;;;;;;;;;;;21.30;99.90;;;;;;5136464;27;19914;-85
2020/12/21 04:04:37;;;;;;;;;;;21.30;99.90;;;;;;5136920;27;20010;-89
2020/12/21 04:07:03;;;;;;;;;;;21.20;99.90;;;;;;5137426;27;20006;-88
2020/12/21 04:09:30;;;;;;;;;;;21.10;99.90;;;;;;5137551;27;20307;-84
2020/12/21 04:11:56;;;;;;;;;;;20.90;99.90;;;;;;5137009;27;19961;-86
2020/12/21 04:14:23;;;;;;;;;;;20.80;99.90;;;;;;5137531;27;19922;-87
2020/12/21 04:16:50;;;;;;;;;;;20.70;99.90;;;;;;5137184;27;20250;-90
2020/12/21 04:19:16;;;;;;;;;;;20.70;99.90;;;;;;5137486;27;19918;-88
2020/12/21 04:21:43;;;;;;;;;;;20.60;99.90;;;;;;5136817;27;19907;-90
2020/12/21 04:24:11;;;;;;;;;;;20.60;99.90;;;;;;5137797;27;19947;-89
2020/12/21 04:26:37;;;;;;;;;;;20.60;99.90;;;;;;5137294;27;19911;-90
2020/12/21 04:29:04;;;;;;;;;;;20.60;99.90;;;;;;5120297;27;19956;-91
2020/12/21 04:31:30;;;;;;;;;;;20.60;99.90;;;;;;5138396;27;19997;-91
2020/12/21 04:33:57;;;;;;;;;;;20.60;99.90;;;;;;5138074;27;19918;-91
2020/12/21 04:36:24;;;;;;;;;;;20.70;99.90;;;;;;5138177;27;20002;-83
2020/12/21 04:38:53;;;;;;;;;;;20.70;99.90;;;;;;5137887;27;19907;-90
2020/12/21 04:41:20;;;;;;;;;;;20.50;99.90;;;;;;5137423;27;19930;-89
2020/12/21 04:43:47;;;;;;;;;;;20.40;99.90;;;;;;5120242;27;19918;-84
2020/12/21 04:46:13;;;;;;;;;;;20.40;99.90;;;;;;5138429;27;19938;-88
2020/12/21 04:48:41;;;;;;;;;;;20.30;99.90;;;;;;5137144;27;19919;-87
2020/12/21 04:51:18;;;;;;;;;;;20.30;99.90;;;;;;5137934;27;20043;-85
2020/12/21 04:53:44;;;;;;;;;;;20.30;99.90;;;;;;5117606;27;19911;-88
2020/12/21 04:56:14;;;;;;;;;;;20.30;99.90;;;;;;5136492;27;20006;-85
2020/12/21 04:58:44;;;;;;;;;;;20.10;99.90;;;;;;5134550;27;19912;-89
2020/12/21 05:01:11;;;;;;;;;;;20.10;99.90;;;;;;5134919;27;19934;-88
2020/12/21 05:03:38;;;;;;;;;;;20.00;99.90;;;;;;5135182;27;19911;-86
2020/12/21 05:06:07;;;;;;;;;;;20.00;99.90;;;;;;5128268;27;20056;-91
2020/12/21 05:08:34;;;;;;;;;;;19.90;99.90;;;;;;5114768;28;20286;-91
2020/12/21 05:11:01;;;;;;;;;;;19.90;99.90;;;;;;5115792;28;19974;-89
2020/12/21 05:13:29;;;;;;;;;;;20.00;99.90;;;;;;5114390;28;19908;-85
2020/12/21 05:15:56;;;;;;;;;;;20.00;99.90;;;;;;5120949;27;20021;-90
2020/12/21 05:18:30;;;;;;;;;;;20.00;99.90;;;;;;5127099;27;20302;-90
2020/12/21 05:21:01;;;;;;;;;;;19.90;99.90;;;;;;5118379;28;20442;-88
2020/12/21 05:23:27;;;;;;;;;;;19.90;99.90;;;;;;5114860;28;20423;-90
2020/12/21 05:26:01;;;;;;;;;;;19.80;99.90;;;;;;5114443;28;19912;-87
2020/12/21 05:28:31;;;;;;;;;;;19.90;99.90;;;;;;5116538;28;19916;-81
2020/12/21 05:31:02;;;;;;;;;;;19.90;99.90;;;;;;5121968;28;19912;-84
2020/12/21 05:33:28;;;;;;;;;;;20.00;99.90;;;;;;5123164;27;19912;-89
2020/12/21 05:35:56;;;;;;;;;;;20.00;99.90;;;;;;5115573;27;19919;-82
2020/12/21 05:38:22;;;;;;;;;;;20.00;99.90;;;;;;5097884;28;19911;-88
2020/12/21 05:40:49;;;;;;;;;;;20.00;99.90;;;;;;5123492;28;19911;-83
2020/12/21 05:43:25;;;;;;;;;;;20.00;99.90;;;;;;5119524;27;19912;-84
2020/12/21 05:46:10;;;;;;;;;;;20.00;99.90;;;;;;5125641;28;19915;-83
2020/12/21 05:48:58;;;;;;;;;;;20.10;99.90;;;;;;5126982;28;19967;-84
2020/12/21 05:51:27;;;;;;;;;;;20.10;99.90;;;;;;5116248;28;19919;-84
2020/12/21 05:53:55;;;;;;;;;;;20.00;99.90;;;;;;5123112;27;19911;-82
2020/12/21 05:56:22;;;;;;;;;;;20.00;99.90;;;;;;5113068;28;19954;-83
2020/12/21 05:58:49;;;;;;;;;;;20.20;99.90;;;;;;5117455;28;19907;-80
2020/12/21 06:01:19;;;;;;;;;;;20.10;99.90;;;;;;5127842;27;19920;-86
2020/12/21 06:03:47;;;;;;;;;;;20.10;99.90;;;;;;5131529;28;19924;-83
2020/12/21 06:06:13;;;;;;;;;;;20.10;99.90;;;;;;5126383;28;20308;-84
2020/12/21 06:08:41;;;;;;;;;;;19.90;99.90;;;;;;5110785;28;19931;-85
2020/12/21 06:11:15;;;;;;;;;;;19.90;99.90;;;;;;5112925;28;19965;-84
2020/12/21 06:13:51;;;;;;;;;;;19.80;99.90;;;;;;5123210;28;19899;-87
2020/12/21 06:16:18;;;;;;;;;;;19.80;99.90;;;;;;5132821;28;20427;-86
2020/12/21 06:18:55;;;;;;;;;;;19.70;99.90;;;;;;5111907;28;19915;-85
2020/12/21 06:21:25;;;;;;;;;;;19.70;99.90;;;;;;5108339;28;19912;-84
2020/12/21 06:23:52;;;;;;;;;;;19.70;99.90;;;;;;5105310;28;19918;-83
2020/12/21 06:26:19;;;;;;;;;;;19.70;99.90;;;;;;5095844;28;19919;-87
2020/12/21 06:28:49;;;;;;;;;;;19.70;99.90;;;;;;5114084;28;19922;-83
2020/12/21 06:31:17;;;;;;;;;;;19.70;99.90;;;;;;5100183;28;19914;-87
2020/12/21 06:33:45;;;;;;;;;;;19.70;99.90;;;;;;5116196;28;19922;-86
2020/12/21 06:36:12;;;;;;;;;;;19.70;99.90;;;;;;5116504;28;19972;-81
2020/12/21 06:38:49;;;;;;;;;;;19.80;99.90;;;;;;5115028;28;19911;-86
2020/12/21 06:41:16;;;;;;;;;;;19.80;99.90;;;;;;5114876;28;19918;-85
2020/12/21 06:44:03;;;;;;;;;;;19.70;99.90;;;;;;5116494;28;19912;-89
2020/12/21 06:46:30;;;;;;;;;;;19.70;99.90;;;;;;5113156;28;19916;-89
2020/12/21 06:49:13;;;;;;;;;;;19.60;99.90;;;;;;5114871;28;20292;-87
2020/12/21 06:51:44;;;;;;;;;;;19.70;99.90;;;;;;5114914;28;20028;-87
2020/12/21 06:54:11;;;;;;;;;;;19.60;99.90;;;;;;5116050;28;20321;-90
2020/12/21 06:56:38;;;;;;;;;;;19.60;99.90;;;;;;5116386;28;19918;-86
2020/12/21 06:59:09;;;;;;;;;;;19.60;99.90;;;;;;5121913;28;19908;-88
2020/12/21 07:01:35;;;;;;;;;;;19.60;99.90;;;;;;5140614;28;19901;-86
2020/12/21 07:04:02;;;;;;;;;;;19.60;99.90;;;;;;5125288;27;19930;-82
2020/12/21 07:06:29;;;;;;;;;;;19.60;99.90;;;;;;5121099;27;19922;-83
2020/12/21 07:08:59;;;;;;;;;;;19.60;99.90;;;;;;5115953;28;19996;-86
2020/12/21 07:11:26;;;;;;;;;;;19.50;99.90;;;;;;5096286;28;19912;-84
2020/12/21 07:13:54;;;;;;;;;;;19.50;99.90;;;;;;5115975;28;19935;-89
2020/12/21 07:16:20;;;;;;;;;;;19.50;99.90;;;;;;5114997;28;20686;-86
2020/12/21 07:18:48;;;;;;;;;;;19.50;99.90;;;;;;5117397;28;19914;-87
2020/12/21 07:21:15;;;;;;;;;;;19.50;99.90;;;;;;5114356;28;19915;-89
2020/12/21 07:23:43;;;;;;;;;;;19.50;99.90;;;;;;5114219;28;19916;-89
2020/12/21 07:26:10;;;;;;;;;;;19.50;99.90;;;;;;5115933;28;19919;-89
2020/12/21 07:28:37;;;;;;;;;;;19.60;99.90;;;;;;5115541;28;19941;-88
2020/12/21 07:31:17;;;;;;;;;;;19.60;99.90;;;;;;5116944;28;19967;-87
2020/12/21 07:33:51;;;;;;;;;;;19.60;99.90;;;;;;5116028;28;19954;-93
2020/12/21 07:36:19;;;;;;;;;;;19.50;99.90;;;;;;5115172;28;19930;-87
2020/12/21 07:38:46;;;;;;;;;;;19.50;99.90;;;;;;5114197;28;19912;-87
2020/12/21 07:41:16;;;;;;;;;;;19.50;99.90;;;;;;5113556;28;20022;-87
2020/12/21 07:43:49;;;;;;;;;;;19.40;99.90;;;;;;5114196;28;19977;-90
2020/12/21 07:46:21;;;;;;;;;;;19.40;99.90;;;;;;5113813;28;20013;-82
2020/12/21 07:48:48;;;;;;;;;;;19.30;99.90;;;;;;5113315;28;19907;-85
2020/12/21 07:51:18;;;;;;;;;;;19.40;99.90;;;;;;5113944;28;20575;-81
2020/12/21 07:53:45;;;;;;;;;;;19.30;99.90;;;;;;5114895;28;19915;-88
2020/12/21 07:56:15;;;;;;;;;;;19.20;99.90;;;;;;5115863;28;19965;-87
2020/12/21 07:58:42;;;;;;;;;;;19.20;99.90;;;;;;5116427;28;19957;-88
2020/12/21 08:01:09;;;;;;;;;;;19.20;99.90;;;;;;5114546;28;20311;-87
2020/12/21 08:03:40;;;;;;;;;;;19.20;99.90;;;;;;5115289;28;19908;-87
2020/12/21 08:06:08;;;;;;;;;;;19.20;99.90;;;;;;5117313;28;20386;-86
2020/12/21 08:08:35;;;;;;;;;;;19.20;99.90;;;;;;5114540;28;19941;-87
2020/12/21 08:11:02;;;;;;;;;;;19.30;99.90;;;;;;5115791;28;19999;-89
2020/12/21 08:13:29;;;;;;;;;;;19.30;99.90;;;;;;5115690;28;19943;-88
2020/12/21 08:16:05;;;;;;;;;;;19.20;99.90;;;;;;5115960;28;19923;-89
2020/12/21 08:18:32;;;;;;;;;;;19.20;99.90;;;;;;5116158;28;19914;-89
2020/12/21 08:20:59;;;;;;;;;;;19.00;99.90;;;;;;5116022;28;19908;-84
2020/12/21 08:23:26;;;;;;;;;;;19.00;99.90;;;;;;5115791;28;19939;-88
2020/12/21 08:25:53;;;;;;;;;;;19.10;99.90;;;;;;5116045;28;19987;-83
2020/12/21 08:28:26;;;;;;;;;;;19.10;99.90;;;;;;5115885;28;19907;-87
2020/12/21 08:31:27;;;;;;;;;;;19.00;99.90;;;;;;5116270;28;19995;-85
2020/12/21 08:34:01;;;;;;;;;;;18.90;99.90;;;;;;5013942;28;20328;-88
2020/12/21 08:36:31;;;;;;;;;;;18.90;99.90;;;;;;5100893;28;19920;-90
2020/12/21 08:39:10;;;;;;;;;;;18.90;99.90;;;;;;5115777;28;20328;-89
2020/12/21 08:41:39;;;;;;;;;;;18.90;99.90;;;;;;5115305;28;20265;-84
2020/12/21 08:44:07;;;;;;;;;;;18.90;99.90;;;;;;5096957;28;19907;-89
2020/12/21 08:46:34;;;;;;;;;;;18.90;99.90;;;;;;5115534;28;19994;-85
2020/12/21 08:49:01;;;;;;;;;;;18.80;99.90;;;;;;5115588;28;20006;-86
2020/12/21 08:51:27;;;;;;;;;;;18.80;99.90;;;;;;5131934;28;19907;-82
2020/12/21 08:53:57;;;;;;;;;;;18.80;99.90;;;;;;5121572;28;20417;-90
2020/12/21 08:56:24;;;;;;;;;;;18.90;99.90;;;;;;5115400;28;19915;-89
2020/12/21 08:58:51;;;;;;;;;;;18.80;99.90;;;;;;5115026;28;20243;-86
2020/12/21 09:01:17;;;;;;;;;;;18.90;99.90;;;;;;5115425;28;19969;-87
2020/12/21 09:03:45;;;;;;;;;;;18.90;99.90;;;;;;5116315;27;20290;-88
2020/12/21 09:06:22;;;;;;;;;;;18.90;99.90;;;;;;5136096;27;19911;-85
2020/12/21 09:08:49;;;;;;;;;;;18.90;99.90;;;;;;5147295;27;19908;-84
2020/12/21 09:11:20;;;;;;;;;;;19.00;99.90;;;;;;5145823;27;19911;-88
2020/12/21 09:13:46;;;;;;;;;;;19.00;99.90;;;;;;5136395;27;19937;-89
2020/12/21 09:16:17;;;;;;;;;;;18.90;99.90;;;;;;5135279;27;20319;-89
2020/12/21 09:18:43;;;;;;;;;;;18.90;99.90;;;;;;5118971;28;19912;-88
2020/12/21 09:21:16;;;;;;;;;;;18.90;99.90;;;;;;5115465;28;20354;-89
2020/12/21 09:23:43;;;;;;;;;;;18.90;99.90;;;;;;5096928;28;20274;-87
2020/12/21 09:26:10;;;;;;;;;;;19.00;99.90;;;;;;5115158;28;19908;-87
2020/12/21 09:28:36;;;;;;;;;;;19.00;99.90;;;;;;5115470;28;19912;-82
2020/12/21 09:31:03;;;;;;;;;;;18.90;99.90;;;;;;5114186;28;19912;-88
2020/12/21 09:33:30;;;;;;;;;;;18.90;99.90;;;;;;5095990;28;19912;-89
2020/12/21 09:35:57;;;;;;;;;;;18.90;99.90;;;;;;5113841;28;19923;-86
2020/12/21 09:38:25;;;;;;;;;;;18.90;99.90;;;;;;5117975;28;19911;-81
2020/12/21 09:40:53;;;;;;;;;;;18.90;99.90;;;;;;5115607;28;19991;-88
2020/12/21 09:43:20;;;;;;;;;;;18.90;99.90;;;;;;5114104;28;19908;-88
2020/12/21 09:45:50;;;;;;;;;;;18.90;99.90;;;;;;5115124;28;19955;-87
2020/12/21 09:48:17;;;;;;;;;;;18.90;99.90;;;;;;5115472;28;20308;-79
2020/12/21 09:50:43;;;;;;;;;;;18.90;99.90;;;;;;5114203;28;19915;-87
2020/12/21 09:53:16;;;;;;;;;;;18.90;99.90;;;;;;5114853;28;19931;-88
2020/12/21 09:55:44;;;;;;;;;;;18.90;99.90;;;;;;5113913;28;20432;-83
2020/12/21 09:58:10;;;;;;;;;;;19.00;99.90;;;;;;5115955;28;19935;-82
2020/12/21 10:00:43;;;;;;;;;;;19.00;99.90;;;;;;5116772;28;19911;-82
2020/12/21 10:03:10;;;;;;;;;;;19.00;99.90;;;;;;5116744;28;20443;-88
2020/12/21 10:05:36;;;;;;;;;;;19.00;99.90;;;;;;5119523;28;19958;-87
2020/12/21 10:08:03;;;;;;;;;;;19.10;99.90;;;;;;5113988;28;19916;-89
2020/12/21 10:10:29;;;;;;;;;;;19.10;99.90;;;;;;5098864;28;19908;-87
2020/12/21 10:12:56;;;;;;;;;;;19.20;99.90;;;;;;5107731;28;20280;-82
2020/12/21 10:15:23;;;;;;;;;;;19.10;99.90;;;;;;5109622;28;19926;-88
2020/12/21 10:17:49;;;;;;;;;;;19.00;99.90;;;;;;5115660;28;19911;-88
2020/12/21 10:20:16;;;;;;;;;;;19.00;99.90;;;;;;5114282;28;20450;-85
2020/12/21 10:22:43;;;;;;;;;;;18.90;99.90;;;;;;5115952;28;20259;-82
2020/12/21 10:25:09;;;;;;;;;;;18.90;99.90;;;;;;5114791;28;19908;-83
2020/12/21 10:27:36;;;;;;;;;;;18.90;99.90;;;;;;5114498;28;20002;-89
2020/12/21 10:30:03;;;;;;;;;;;18.90;99.90;;;;;;5114130;28;20006;-85
2020/12/21 10:32:30;;;;;;;;;;;19.00;99.90;;;;;;5112800;28;19916;-80
2020/12/21 10:34:56;;;;;;;;;;;19.00;99.90;;;;;;5116182;28;20605;-79
2020/12/21 10:37:23;;;;;;;;;;;18.90;99.90;;;;;;5096065;28;19947;-82
2020/12/21 10:39:49;;;;;;;;;;;18.90;99.90;;;;;;5108720;28;19915;-77
2020/12/21 10:42:17;;;;;;;;;;;18.80;99.90;;;;;;5112676;28;20191;-85
2020/12/21 10:44:43;;;;;;;;;;;18.80;99.90;;;;;;5112361;28;20023;-80
2020/12/21 10:47:10;;;;;;;;;;;18.80;99.90;;;;;;5112081;28;20337;-79
2020/12/21 10:49:37;;;;;;;;;;;18.90;99.90;;;;;;5113833;28;20366;-84
2020/12/21 10:52:03;;;;;;;;;;;18.90;99.90;;;;;;5113162;28;19920;-83
2020/12/21 10:54:30;;;;;;;;;;;19.00;99.90;;;;;;5113869;28;19920;-82
2020/12/21 10:56:57;;;;;;;;;;;18.90;99.90;;;;;;5112175;28;19940;-80
2020/12/21 10:59:23;;;;;;;;;;;18.80;99.90;;;;;;5112898;28;19912;-85
2020/12/21 11:01:50;;;;;;;;;;;18.80;99.90;;;;;;5112163;28;19923;-85
2020/12/21 11:04:17;;;;;;;;;;;18.90;99.90;;;;;;5112675;28;19924;-84
2020/12/21 11:06:43;;;;;;;;;;;18.90;99.90;;;;;;5112478;28;19947;-84
2020/12/21 11:09:10;;;;;;;;;;;18.90;99.90;;;;;;5112312;28;19930;-81
2020/12/21 11:11:36;;;;;;;;;;;18.90;99.90;;;;;;5111944;28;19920;-84
2020/12/21 11:14:04;;;;;;;;;;;18.90;99.90;;;;;;5112964;28;20380;-83
2020/12/21 11:16:31;;;;;;;;;;;18.90;99.90;;;;;;5110668;28;19927;-81
2020/12/21 11:18:58;;;;;;;;;;;18.90;99.90;;;;;;5110957;28;20033;-81
2020/12/21 11:21:25;;;;;;;;;;;19.00;99.90;;;;;;5112056;28;19923;-82
2020/12/21 11:23:51;;;;;;;;;;;18.90;99.90;;;;;;5113551;28;19916;-82
2020/12/21 11:26:19;;;;;;;;;;;18.80;99.90;;;;;;5112750;28;19992;-82
2020/12/21 11:28:46;;;;;;;;;;;18.90;99.90;;;;;;5112562;28;19998;-80
2020/12/21 11:31:16;;;;;;;;;;;18.80;99.90;;;;;;5110156;28;20420;-81
2020/12/21 11:33:43;;;;;;;;;;;18.70;99.90;;;;;;5112200;28;20377;-82
2020/12/21 11:36:10;;;;;;;;;;;18.90;99.90;;;;;;5111206;28;19923;-81
2020/12/21 11:38:37;;;;;;;;;;;18.80;99.90;;;;;;5112516;28;19923;-82
2020/12/21 11:41:04;;;;;;;;;;;18.70;99.90;;;;;;5109250;28;19922;-86
2020/12/21 11:43:31;;;;;;;;;;;18.70;99.90;;;;;;5111314;28;20523;-83
2020/12/21 11:45:58;;;;;;;;;;;18.60;99.90;;;;;;5111518;28;19920;-83
2020/12/21 11:48:24;;;;;;;;;;;18.60;99.90;;;;;;5112930;28;19912;-89
2020/12/21 11:50:51;;;;;;;;;;;18.60;99.90;;;;;;5112390;28;19912;-81
2020/12/21 11:53:18;;;;;;;;;;;18.50;99.90;;;;;;5111826;28;20033;-80
2020/12/21 11:55:46;;;;;;;;;;;18.50;99.90;;;;;;5112096;28;19919;-81
2020/12/21 11:58:13;;;;;;;;;;;18.50;99.90;;;;;;5112067;28;19911;-87
2020/12/21 12:00:39;;;;;;;;;;;18.50;99.90;;;;;;5112235;28;19915;-91
2020/12/21 12:03:06;;;;;;;;;;;18.50;99.90;;;;;;5112635;28;19966;-86
2020/12/21 12:05:32;;;;;;;;;;;18.50;99.90;;;;;;5110942;28;20394;-85
2020/12/21 12:07:59;;;;;;;;;;;18.40;99.90;;;;;;5111700;28;19919;-83
2020/12/21 12:10:26;;;;;;;;;;;18.50;99.90;;;;;;5093022;28;19930;-79
2020/12/21 12:12:52;;;;;;;;;;;18.50;99.90;;;;;;5112126;28;19977;-84
2020/12/21 12:15:19;;;;;;;;;;;18.50;99.90;;;;;;5111847;28;19923;-85
2020/12/21 12:17:46;;;;;;;;;;;18.50;99.90;;;;;;5111088;28;20404;-85
2020/12/21 12:20:12;;;;;;;;;;;18.60;99.90;;;;;;5112273;28;19912;-89
2020/12/21 12:22:42;;;;;;;;;;;18.60;99.90;;;;;;5112489;28;19907;-81
2020/12/21 12:25:08;;;;;;;;;;;18.70;99.90;;;;;;5112136;28;20018;-86
2020/12/21 12:27:35;;;;;;;;;;;18.70;99.90;;;;;;5112672;28;19919;-88
2020/12/21 12:30:03;;;;;;;;;;;18.80;99.90;;;;;;5112796;28;19920;-90
2020/12/21 12:32:30;;;;;;;;;;;18.90;99.90;;;;;;5113595;28;19943;-81
2020/12/21 12:34:57;;;;;;;;;;;19.00;99.90;;;;;;5112915;28;19946;-88
2020/12/21 12:37:24;;;;;;;;;;;19.00;99.90;;;;;;5111499;28;19915;-85
2020/12/21 12:39:51;;;;;;;;;;;19.00;99.90;;;;;;5110177;28;19964;-85
2020/12/21 12:42:17;;;;;;;;;;;18.90;99.90;;;;;;5099456;28;20302;-90
2020/12/21 12:44:44;;;;;;;;;;;18.90;99.90;;;;;;5111446;28;19963;-88
2020/12/21 12:47:11;;;;;;;;;;;18.80;99.90;;;;;;5111673;28;20004;-82
2020/12/21 12:49:37;;;;;;;;;;;18.90;99.90;;;;;;5112140;28;19907;-85
2020/12/21 12:52:04;;;;;;;;;;;18.90;99.90;;;;;;5111388;28;20010;-83
2020/12/21 12:54:31;;;;;;;;;;;18.80;99.90;;;;;;5111476;28;20389;-86
2020/12/21 12:56:57;;;;;;;;;;;18.80;99.90;;;;;;5112322;28;19915;-84
2020/12/21 12:59:24;;;;;;;;;;;18.80;99.90;;;;;;5111514;28;19912;-86
2020/12/21 13:01:50;;;;;;;;;;;18.80;99.90;;;;;;5112091;28;19923;-87
2020/12/21 13:04:17;;;;;;;;;;;18.80;99.90;;;;;;5111312;28;20347;-86
2020/12/21 13:06:47;;;;;;;;;;;18.90;99.90;;;;;;5110543;28;20410;-83
2020/12/21 13:09:13;;;;;;;;;;;18.90;99.90;;;;;;5111767;28;19998;-86
2020/12/21 13:11:40;;;;;;;;;;;18.90;99.90;;;;;;5111651;28;19912;-86
2020/12/21 13:14:07;;;;;;;;;;;19.00;99.90;;;;;;5110968;28;20002;-84
2020/12/21 13:16:40;;;;;;;;;;;19.00;99.90;;;;;;5111548;28;19922;-87
2020/12/21 13:19:07;;;;;;;;;;;18.90;99.90;;;;;;5111574;28;19916;-89
2020/12/21 13:21:33;;;;;;;;;;;18.70;99.90;;;;;;5111699;28;19925;-84
2020/12/21 13:24:01;;;;;;;;;;;18.70;99.90;;;;;;5111299;28;19912;-86
2020/12/21 13:26:27;;;;;;;;;;;18.60;99.90;;;;;;5111176;28;20028;-83
2020/12/21 13:28:54;;;;;;;;;;;18.50;99.90;;;;;;5111890;28;19911;-83
2020/12/21 13:31:21;;;;;;;;;;;18.50;99.90;;;;;;5110896;28;20445;-81
2020/12/21 13:33:49;;;;;;;;;;;18.50;99.90;;;;;;5102142;28;19912;-85
2020/12/21 13:36:16;;;;;;;;;;;18.50;99.90;;;;;;5111046;28;19976;-87
2020/12/21 13:38:42;;;;;;;;;;;18.50;99.90;;;;;;5112275;28;20013;-82
2020/12/21 13:41:10;;;;;;;;;;;18.50;99.90;;;;;;5115918;28;19912;-83
2020/12/21 13:43:38;;;;;;;;;;;18.50;99.90;;;;;;5115760;28;20326;-82
2020/12/21 13:46:05;;;;;;;;;;;18.50;99.90;;;;;;5114870;28;19943;-83
2020/12/21 13:48:31;;;;;;;;;;;18.50;99.90;;;;;;5115075;28;20310;-83
2020/12/21 13:50:58;;;;;;;;;;;18.50;99.90;;;;;;5114476;28;19916;-88
2020/12/21 13:53:25;;;;;;;;;;;18.50;99.90;;;;;;5114742;28;19919;-87
2020/12/21 13:55:52;;;;;;;;;;;18.50;99.90;;;;;;5115331;28;20026;-83
2020/12/21 13:58:18;;;;;;;;;;;18.40;99.90;;;;;;5115317;28;19923;-83
2020/12/21 14:00:45;;;;;;;;;;;18.40;99.90;;;;;;5114802;28;19919;-84
2020/12/21 14:03:12;;;;;;;;;;;18.40;99.90;;;;;;5114821;28;20419;-83
2020/12/21 14:05:38;;;;;;;;;;;18.40;99.90;;;;;;5133110;27;19927;-83
2020/12/21 14:08:05;;;;;;;;;;;18.50;99.90;;;;;;5118060;27;19912;-84
2020/12/21 14:10:32;;;;;;;;;;;18.50;99.90;;;;;;5135745;27;20308;-86
2020/12/21 14:12:58;;;;;;;;;;;18.60;99.90;;;;;;5127147;27;19923;-85
2020/12/21 14:15:25;;;;;;;;;;;18.70;99.90;;;;;;5114860;28;19919;-85
2020/12/21 14:17:52;;;;;;;;;;;18.60;99.90;;;;;;5115390;28;19911;-85
2020/12/21 14:20:19;;;;;;;;;;;18.60;99.90;;;;;;5134104;27;19912;-83